sensor_id;sensor_type;location;lat;lon;timestamp;pressure;altitude;pressure_sealevel;temperature;humidity
39739;BME280;25422;48.286;8.484;2023-01-29T00:00:38;94911.22;;;-3.30;100.00
39739;BME280;25422;48.286;8.484;2023-01-29T00:03:03;94918.00;;;-3.29;100.00
39739;BME280;25422;48.286;8.484;2023-01-29T00:05:30;94903.59;;;-3.32;100.00
39739;BME280;25422;48.286;8.484;2023-01-29T00:07:56;94891.91;;;-3.37;100.00
39739;BME280;25422;48.286;8.484;2023-01-29T00:10:23;94892.53;;;-3.32;100.00
39739;BME280;25422;48.286;8.484;2023-01-29T00:12:48;94900.19;;;-3.32;100.00
39739;BME280;25422;48.286;8.484;2023-01-29T00:15:16;94895.78;;;-3.29;100.00
39739;BME280;25422;48.286;8.484;2023-01-29T00:17:41;94898.50;;;-3.32;100.00
39739;BME280;25422;48.286;8.484;2023-01-29T00:20:08;94900.41;;;-3.37;100.00
39739;BME280;25422;48.286;8.484;2023-01-29T00:22:33;94898.13;;;-3.43;100.00
39739;BME280;25422;48.286;8.484;2023-01-29T00:24:58;94897.03;;;-3.37;100.00
39739;BME280;25422;48.286;8.484;2023-01-29T00:27:24;94894.41;;;-3.36;100.00
39739;BME280;25422;48.286;8.484;2023-01-29T00:29:50;94891.63;;;-3.31;100.00
39739;BME280;25422;48.286;8.484;2023-01-29T00:32:33;94897.31;;;-3.25;100.00
39739;BME280;25422;48.286;8.484;2023-01-29T00:34:59;94901.78;;;-3.30;100.00
39739;BME280;25422;48.286;8.484;2023-01-29T00:37:24;94899.72;;;-3.41;100.00
39739;BME280;25422;48.286;8.484;2023-01-29T00:39:50;94903.13;;;-3.40;100.00
39739;BME280;25422;48.286;8.484;2023-01-29T00:42:15;94897.63;;;-3.51;100.00
39739;BME280;25422;48.286;8.484;2023-01-29T00:44:59;94892.31;;;-3.47;100.00
39739;BME280;25422;48.286;8.484;2023-01-29T00:47:25;94894.00;;;-3.46;100.00
39739;BME280;25422;48.286;8.484;2023-01-29T00:50:00;94889.53;;;-3.42;100.00
39739;BME280;25422;48.286;8.484;2023-01-29T00:52:27;94886.91;;;-3.41;100.00
39739;BME280;25422;48.286;8.484;2023-01-29T00:54:54;94883.88;;;-3.49;100.00
39739;BME280;25422;48.286;8.484;2023-01-29T00:57:21;94894.09;;;-3.49;100.00
39739;BME280;25422;48.286;8.484;2023-01-29T00:59:46;94888.97;;;-3.49;100.00
39739;BME280;25422;48.286;8.484;2023-01-29T01:02:12;94885.53;;;-3.48;100.00
39739;BME280;25422;48.286;8.484;2023-01-29T01:04:56;94882.50;;;-3.56;100.00
39739;BME280;25422;48.286;8.484;2023-01-29T01:07:22;94891.63;;;-3.50;100.00
39739;BME280;25422;48.286;8.484;2023-01-29T01:09:49;94884.00;;;-3.52;100.00
39739;BME280;25422;48.286;8.484;2023-01-29T01:12:33;94877.88;;;-3.48;100.00
39739;BME280;25422;48.286;8.484;2023-01-29T01:14:58;94882.50;;;-3.56;100.00
39739;BME280;25422;48.286;8.484;2023-01-29T01:17:24;94880.88;;;-3.59;100.00
39739;BME280;25422;48.286;8.484;2023-01-29T01:19:49;94886.97;;;-3.61;100.00
39739;BME280;25422;48.286;8.484;2023-01-29T01:22:15;94889.59;;;-3.63;100.00
39739;BME280;25422;48.286;8.484;2023-01-29T01:24:42;94887.81;;;-3.61;100.00
39739;BME280;25422;48.286;8.484;2023-01-29T01:27:08;94891.94;;;-3.58;100.00
39739;BME280;25422;48.286;8.484;2023-01-29T01:29:33;94885.88;;;-3.56;100.00
39739;BME280;25422;48.286;8.484;2023-01-29T01:31:59;94893.88;;;-3.63;100.00
39739;BME280;25422;48.286;8.484;2023-01-29T01:34:25;94888.84;;;-3.65;100.00
39739;BME280;25422;48.286;8.484;2023-01-29T01:36:52;94891.25;;;-3.62;100.00
39739;BME280;25422;48.286;8.484;2023-01-29T01:39:17;94899.91;;;-3.64;100.00
39739;BME280;25422;48.286;8.484;2023-01-29T01:41:43;94892.06;;;-3.61;100.00
39739;BME280;25422;48.286;8.484;2023-01-29T01:47:12;94888.00;;;-3.65;100.00
39739;BME280;25422;48.286;8.484;2023-01-29T01:49:38;94885.38;;;-3.64;100.00
39739;BME280;25422;48.286;8.484;2023-01-29T01:52:04;94871.28;;;-3.53;100.00
39739;BME280;25422;48.286;8.484;2023-01-29T01:54:31;94868.59;;;-3.50;100.00
39739;BME280;25422;48.286;8.484;2023-01-29T01:57:05;94871.47;;;-3.58;100.00
39739;BME280;25422;48.286;8.484;2023-01-29T02:00:26;94872.59;;;-3.64;100.00
39739;BME280;25422;48.286;8.484;2023-01-29T02:02:40;94873.03;;;-3.54;100.00
39739;BME280;25422;48.286;8.484;2023-01-29T02:05:26;94871.63;;;-3.61;100.00
39739;BME280;25422;48.286;8.484;2023-01-29T02:08:13;94863.88;;;-3.60;100.00
39739;BME280;25422;48.286;8.484;2023-01-29T02:10:59;94874.31;;;-3.64;100.00
39739;BME280;25422;48.286;8.484;2023-01-29T02:13:25;94866.66;;;-3.64;100.00
39739;BME280;25422;48.286;8.484;2023-01-29T02:15:51;94868.50;;;-3.68;100.00
39739;BME280;25422;48.286;8.484;2023-01-29T02:18:18;94873.81;;;-3.73;100.00
39739;BME280;25422;48.286;8.484;2023-01-29T02:20:57;94872.50;;;-3.62;100.00
39739;BME280;25422;48.286;8.484;2023-01-29T02:26:26;94881.09;;;-3.63;100.00
39739;BME280;25422;48.286;8.484;2023-01-29T02:29:13;94886.41;;;-3.68;100.00
39739;BME280;25422;48.286;8.484;2023-01-29T02:35:14;94873.97;;;-3.76;100.00
39739;BME280;25422;48.286;8.484;2023-01-29T02:38:03;94879.44;;;-3.64;100.00
39739;BME280;25422;48.286;8.484;2023-01-29T02:43:21;94876.72;;;-3.61;100.00
39739;BME280;25422;48.286;8.484;2023-01-29T02:48:40;94882.59;;;-3.78;100.00
39739;BME280;25422;48.286;8.484;2023-01-29T02:51:39;94878.16;;;-3.75;100.00
39739;BME280;25422;48.286;8.484;2023-01-29T02:56:38;94889.25;;;-3.74;100.00
39739;BME280;25422;48.286;8.484;2023-01-29T02:59:17;94896.06;;;-3.75;100.00
39739;BME280;25422;48.286;8.484;2023-01-29T03:01:49;94899.25;;;-3.69;100.00
39739;BME280;25422;48.286;8.484;2023-01-29T03:04:28;94900.50;;;-3.78;100.00
39739;BME280;25422;48.286;8.484;2023-01-29T03:07:09;94897.22;;;-3.82;100.00
39739;BME280;25422;48.286;8.484;2023-01-29T03:09:57;94892.25;;;-3.85;100.00
39739;BME280;25422;48.286;8.484;2023-01-29T03:12:25;94893.56;;;-3.76;100.00
39739;BME280;25422;48.286;8.484;2023-01-29T03:15:15;94896.97;;;-3.76;100.00
39739;BME280;25422;48.286;8.484;2023-01-29T03:20:36;94891.09;;;-3.78;100.00
39739;BME280;25422;48.286;8.484;2023-01-29T03:23:09;94893.13;;;-3.65;100.00
39739;BME280;25422;48.286;8.484;2023-01-29T03:25:39;94887.63;;;-3.77;100.00
39739;BME280;25422;48.286;8.484;2023-01-29T03:28:29;94893.25;;;-3.68;100.00
39739;BME280;25422;48.286;8.484;2023-01-29T03:31:14;94881.81;;;-3.80;100.00
39739;BME280;25422;48.286;8.484;2023-01-29T03:34:12;94883.78;;;-3.66;100.00
39739;BME280;25422;48.286;8.484;2023-01-29T03:36:47;94880.16;;;-3.81;100.00
39739;BME280;25422;48.286;8.484;2023-01-29T03:39:16;94881.38;;;-3.90;100.00
39739;BME280;25422;48.286;8.484;2023-01-29T03:44:36;94889.88;;;-3.90;100.00
39739;BME280;25422;48.286;8.484;2023-01-29T03:47:12;94884.00;;;-3.92;100.00
39739;BME280;25422;48.286;8.484;2023-01-29T03:49:58;94886.63;;;-3.93;100.00
39739;BME280;25422;48.286;8.484;2023-01-29T03:52:48;94888.28;;;-3.92;100.00
39739;BME280;25422;48.286;8.484;2023-01-29T03:55:27;94881.94;;;-3.83;100.00
39739;BME280;25422;48.286;8.484;2023-01-29T04:01:10;94893.84;;;-3.82;100.00
39739;BME280;25422;48.286;8.484;2023-01-29T04:03:37;94888.03;;;-3.86;100.00
39739;BME280;25422;48.286;8.484;2023-01-29T04:06:17;94888.03;;;-3.86;100.00
39739;BME280;25422;48.286;8.484;2023-01-29T04:09:03;94880.34;;;-3.86;100.00
39739;BME280;25422;48.286;8.484;2023-01-29T04:11:32;94882.28;;;-3.91;100.00
39739;BME280;25422;48.286;8.484;2023-01-29T04:14:00;94878.91;;;-3.92;100.00
39739;BME280;25422;48.286;8.484;2023-01-29T04:16:33;94886.50;;;-3.90;100.00
39739;BME280;25422;48.286;8.484;2023-01-29T04:19:25;94887.97;;;-3.84;100.00
39739;BME280;25422;48.286;8.484;2023-01-29T04:21:59;94885.78;;;-3.94;100.00
39739;BME280;25422;48.286;8.484;2023-01-29T04:24:26;94890.25;;;-3.99;100.00
39739;BME280;25422;48.286;8.484;2023-01-29T04:30:15;94891.34;;;-4.04;100.00
39739;BME280;25422;48.286;8.484;2023-01-29T04:33:02;94883.59;;;-4.03;100.00
39739;BME280;25422;48.286;8.484;2023-01-29T04:35:39;94876.00;;;-4.04;100.00
39739;BME280;25422;48.286;8.484;2023-01-29T04:38:11;94888.72;;;-4.03;100.00
39739;BME280;25422;48.286;8.484;2023-01-29T04:40:55;94881.06;;;-4.03;100.00
39739;BME280;25422;48.286;8.484;2023-01-29T04:46:34;94883.56;;;-4.01;100.00
39739;BME280;25422;48.286;8.484;2023-01-29T04:51:58;94872.91;;;-3.91;100.00
39739;BME280;25422;48.286;8.484;2023-01-29T04:59:56;94880.09;;;-4.00;100.00
39739;BME280;25422;48.286;8.484;2023-01-29T05:02:25;94876.34;;;-3.92;100.00
39739;BME280;25422;48.286;8.484;2023-01-29T05:04:51;94870.28;;;-3.89;100.00
39739;BME280;25422;48.286;8.484;2023-01-29T05:07:19;94877.44;;;-3.97;100.00
39739;BME280;25422;48.286;8.484;2023-01-29T05:09:46;94881.38;;;-3.90;100.00
39739;BME280;25422;48.286;8.484;2023-01-29T05:12:14;94875.69;;;-3.97;100.00
39739;BME280;25422;48.286;8.484;2023-01-29T05:14:43;94875.84;;;-4.00;100.00
39739;BME280;25422;48.286;8.484;2023-01-29T05:17:14;94874.16;;;-4.01;100.00
39739;BME280;25422;48.286;8.484;2023-01-29T05:19:40;94881.97;;;-4.04;100.00
39739;BME280;25422;48.286;8.484;2023-01-29T05:22:08;94877.81;;;-4.07;100.00
39739;BME280;25422;48.286;8.484;2023-01-29T05:24:36;94881.06;;;-4.03;100.00
39739;BME280;25422;48.286;8.484;2023-01-29T05:27:02;94881.19;;;-4.06;100.00
39739;BME280;25422;48.286;8.484;2023-01-29T05:29:46;94878.47;;;-4.01;100.00
39739;BME280;25422;48.286;8.484;2023-01-29T05:32:13;94872.44;;;-4.00;100.00
39739;BME280;25422;48.286;8.484;2023-01-29T05:34:39;94873.06;;;-3.95;100.00
39739;BME280;25422;48.286;8.484;2023-01-29T05:37:05;94883.50;;;-4.00;100.00
39739;BME280;25422;48.286;8.484;2023-01-29T05:39:30;94877.38;;;-3.96;100.00
39739;BME280;25422;48.286;8.484;2023-01-29T05:41:55;94876.50;;;-3.96;100.00
39739;BME280;25422;48.286;8.484;2023-01-29T05:44:21;94885.22;;;-4.00;100.00
39739;BME280;25422;48.286;8.484;2023-01-29T05:46:46;94885.09;;;-3.97;100.00
39739;BME280;25422;48.286;8.484;2023-01-29T05:49:12;94876.25;;;-3.90;100.00
39739;BME280;25422;48.286;8.484;2023-01-29T05:51:38;94876.78;;;-4.02;100.00
39739;BME280;25422;48.286;8.484;2023-01-29T05:54:03;94883.94;;;-4.11;100.00
39739;BME280;25422;48.286;8.484;2023-01-29T05:56:29;94893.06;;;-4.05;100.00
39739;BME280;25422;48.286;8.484;2023-01-29T05:58:55;94898.44;;;-4.11;100.00
39739;BME280;25422;48.286;8.484;2023-01-29T06:01:23;94889.81;;;-4.09;100.00
39739;BME280;25422;48.286;8.484;2023-01-29T06:03:49;94889.56;;;-4.02;100.00
39739;BME280;25422;48.286;8.484;2023-01-29T06:06:15;94876.00;;;-4.04;100.00
39739;BME280;25422;48.286;8.484;2023-01-29T06:08:41;94873.06;;;-3.95;100.00
39739;BME280;25422;48.286;8.484;2023-01-29T06:11:08;94873.06;;;-3.95;100.00
39739;BME280;25422;48.286;8.484;2023-01-29T06:13:33;94869.06;;;-4.01;100.00
39739;BME280;25422;48.286;8.484;2023-01-29T06:15:59;94859.91;;;-4.07;100.00
39739;BME280;25422;48.286;8.484;2023-01-29T06:18:24;94846.25;;;-4.05;100.00
39739;BME280;25422;48.286;8.484;2023-01-29T06:20:50;94838.75;;;-4.10;100.00
39739;BME280;25422;48.286;8.484;2023-01-29T06:23:15;94844.31;;;-4.21;100.00
39739;BME280;25422;48.286;8.484;2023-01-29T06:25:40;94844.59;;;-4.27;100.00
39739;BME280;25422;48.286;8.484;2023-01-29T06:28:06;94847.00;;;-4.24;100.00
39739;BME280;25422;48.286;8.484;2023-01-29T06:30:31;94855.44;;;-4.22;100.00
39739;BME280;25422;48.286;8.484;2023-01-29T06:32:57;94856.97;;;-4.18;100.00
39739;BME280;25422;48.286;8.484;2023-01-29T06:35:24;94869.88;;;-4.21;100.00
39739;BME280;25422;48.286;8.484;2023-01-29T06:37:49;94870.66;;;-4.19;100.00
39739;BME280;25422;48.286;8.484;2023-01-29T06:40:15;94872.94;;;-4.13;100.00
39739;BME280;25422;48.286;8.484;2023-01-29T06:42:40;94880.53;;;-4.11;100.00
39739;BME280;25422;48.286;8.484;2023-01-29T06:45:06;94876.53;;;-4.17;100.00
39739;BME280;25422;48.286;8.484;2023-01-29T06:47:32;94866.44;;;-4.20;100.00
39739;BME280;25422;48.286;8.484;2023-01-29T06:49:58;94863.00;;;-4.19;100.00
39739;BME280;25422;48.286;8.484;2023-01-29T06:52:26;94865.56;;;-4.19;100.00
39739;BME280;25422;48.286;8.484;2023-01-29T06:54:56;94870.31;;;-4.11;100.00
39739;BME280;25422;48.286;8.484;2023-01-29T06:57:21;94862.59;;;-4.10;100.00
39739;BME280;25422;48.286;8.484;2023-01-29T06:59:47;94871.34;;;-4.15;100.00
39739;BME280;25422;48.286;8.484;2023-01-29T07:02:13;94886.56;;;-4.12;100.00
39739;BME280;25422;48.286;8.484;2023-01-29T07:04:38;94888.22;;;-4.11;100.00
39739;BME280;25422;48.286;8.484;2023-01-29T07:07:05;94891.69;;;-4.12;100.00
39739;BME280;25422;48.286;8.484;2023-01-29T07:09:36;94898.38;;;-4.10;100.00
39739;BME280;25422;48.286;8.484;2023-01-29T07:12:02;94898.44;;;-4.11;100.00
39739;BME280;25422;48.286;8.484;2023-01-29T07:14:28;94896.34;;;-4.01;100.00
39739;BME280;25422;48.286;8.484;2023-01-29T07:16:54;94904.97;;;-4.04;100.00
39739;BME280;25422;48.286;8.484;2023-01-29T07:19:19;94900.69;;;-4.03;100.00
39739;BME280;25422;48.286;8.484;2023-01-29T07:21:45;94902.72;;;-3.91;100.00
39739;BME280;25422;48.286;8.484;2023-01-29T07:24:10;94911.91;;;-3.87;100.00
39739;BME280;25422;48.286;8.484;2023-01-29T07:26:35;94910.53;;;-3.94;100.00
39739;BME280;25422;48.286;8.484;2023-01-29T07:29:01;94908.63;;;-3.89;100.00
39739;BME280;25422;48.286;8.484;2023-01-29T07:31:26;94914.81;;;-3.95;100.00
39739;BME280;25422;48.286;8.484;2023-01-29T07:33:52;94904.38;;;-3.90;100.00
39739;BME280;25422;48.286;8.484;2023-01-29T07:36:17;94900.88;;;-3.87;100.00
39739;BME280;25422;48.286;8.484;2023-01-29T07:38:43;94903.94;;;-3.79;100.00
39739;BME280;25422;48.286;8.484;2023-01-29T07:41:12;94900.78;;;-3.65;100.00
39739;BME280;25422;48.286;8.484;2023-01-29T07:43:38;94902.81;;;-3.53;100.00
39739;BME280;25422;48.286;8.484;2023-01-29T07:46:04;94905.38;;;-3.53;100.00
39739;BME280;25422;48.286;8.484;2023-01-29T07:48:29;94908.88;;;-3.56;100.00
39739;BME280;25422;48.286;8.484;2023-01-29T07:50:55;94909.34;;;-3.46;100.00
39739;BME280;25422;48.286;8.484;2023-01-29T07:53:21;94909.66;;;-3.53;100.00
39739;BME280;25422;48.286;8.484;2023-01-29T07:55:46;94909.06;;;-3.40;100.00
39739;BME280;25422;48.286;8.484;2023-01-29T07:58:12;94904.56;;;-3.34;100.00
39739;BME280;25422;48.286;8.484;2023-01-29T08:00:37;94912.50;;;-3.41;100.00
39739;BME280;25422;48.286;8.484;2023-01-29T08:03:05;94916.34;;;-3.30;100.00
39739;BME280;25422;48.286;8.484;2023-01-29T08:05:31;94918.56;;;-3.23;100.00
39739;BME280;25422;48.286;8.484;2023-01-29T08:07:56;94931.69;;;-3.30;100.00
39739;BME280;25422;48.286;8.484;2023-01-29T08:10:22;94929.19;;;-3.32;100.00
39739;BME280;25422;48.286;8.484;2023-01-29T08:12:53;94940.88;;;-3.26;100.00
39739;BME280;25422;48.286;8.484;2023-01-29T08:15:18;94938.19;;;-3.04;100.00
39739;BME280;25422;48.286;8.484;2023-01-29T08:17:43;94950.81;;;-2.99;100.00
39739;BME280;25422;48.286;8.484;2023-01-29T08:20:09;94948.19;;;-2.98;100.00
39739;BME280;25422;48.286;8.484;2023-01-29T08:22:35;94952.34;;;-2.95;100.00
39739;BME280;25422;48.286;8.484;2023-01-29T08:25:00;94954.91;;;-2.95;100.00
39739;BME280;25422;48.286;8.484;2023-01-29T08:27:26;94955.53;;;-3.09;100.00
39739;BME280;25422;48.286;8.484;2023-01-29T08:29:51;94954.97;;;-3.16;100.00
39739;BME280;25422;48.286;8.484;2023-01-29T08:32:16;94947.31;;;-3.17;100.00
39739;BME280;25422;48.286;8.484;2023-01-29T08:34:42;94949.03;;;-3.37;100.00
39739;BME280;25422;48.286;8.484;2023-01-29T08:37:07;94950.00;;;-3.40;100.00
39739;BME280;25422;48.286;8.484;2023-01-29T08:39:32;94951.16;;;-3.47;100.00
39739;BME280;25422;48.286;8.484;2023-01-29T08:41:58;94944.69;;;-3.35;100.00
39739;BME280;25422;48.286;8.484;2023-01-29T08:44:23;94946.91;;;-3.27;100.00
39739;BME280;25422;48.286;8.484;2023-01-29T08:46:49;94945.53;;;-3.15;100.00
39739;BME280;25422;48.286;8.484;2023-01-29T08:49:14;94944.25;;;-3.05;100.00
39739;BME280;25422;48.286;8.484;2023-01-29T08:51:39;94945.22;;;-3.08;100.00
39739;BME280;25422;48.286;8.484;2023-01-29T08:54:05;94946.19;;;-2.91;100.00
39739;BME280;25422;48.286;8.484;2023-01-29T08:56:30;94953.06;;;-2.93;100.00
39739;BME280;25422;48.286;8.484;2023-01-29T08:58:56;94953.31;;;-2.79;100.00
39739;BME280;25422;48.286;8.484;2023-01-29T09:01:21;94964.09;;;-2.72;100.00
39739;BME280;25422;48.286;8.484;2023-01-29T09:03:47;94965.94;;;-2.57;100.00
39739;BME280;25422;48.286;8.484;2023-01-29T09:06:13;94973.78;;;-2.79;100.00
39739;BME280;25422;48.286;8.484;2023-01-29T09:08:39;94974.59;;;-2.78;100.00
39739;BME280;25422;48.286;8.484;2023-01-29T09:11:05;94969.94;;;-2.88;100.00
39739;BME280;25422;48.286;8.484;2023-01-29T09:13:31;94982.19;;;-2.75;100.00
39739;BME280;25422;48.286;8.484;2023-01-29T09:16:00;94976.84;;;-2.71;100.00
39739;BME280;25422;48.286;8.484;2023-01-29T09:18:26;94974.50;;;-2.75;100.00
39739;BME280;25422;48.286;8.484;2023-01-29T09:20:52;94974.56;;;-2.21;100.00
39739;BME280;25422;48.286;8.484;2023-01-29T09:23:17;94974.91;;;-1.92;100.00
39739;BME280;25422;48.286;8.484;2023-01-29T09:25:43;94975.88;;;-1.95;100.00
39739;BME280;25422;48.286;8.484;2023-01-29T09:28:08;94973.00;;;-1.89;100.00
39739;BME280;25422;48.286;8.484;2023-01-29T09:30:34;94977.41;;;-2.27;100.00
39739;BME280;25422;48.286;8.484;2023-01-29T09:33:05;94974.34;;;-2.53;100.00
39739;BME280;25422;48.286;8.484;2023-01-29T09:35:31;94976.47;;;-2.44;100.00
39739;BME280;25422;48.286;8.484;2023-01-29T09:37:56;94973.22;;;-2.11;100.00
39739;BME280;25422;48.286;8.484;2023-01-29T09:40:34;94975.13;;;-1.79;100.00
39739;BME280;25422;48.286;8.484;2023-01-29T09:43:04;94975.72;;;-1.57;100.00
39739;BME280;25422;48.286;8.484;2023-01-29T09:45:31;94980.09;;;-1.41;100.00
39739;BME280;25422;48.286;8.484;2023-01-29T09:48:01;94976.56;;;-1.05;100.00
39739;BME280;25422;48.286;8.484;2023-01-29T09:50:46;94975.31;;;-1.14;100.00
39739;BME280;25422;48.286;8.484;2023-01-29T09:53:19;94976.88;;;-1.11;100.00
39739;BME280;25422;48.286;8.484;2023-01-29T09:55:57;94985.13;;;-1.22;100.00
39739;BME280;25422;48.286;8.484;2023-01-29T09:58:31;94975.53;;;-1.70;100.00
39739;BME280;25422;48.286;8.484;2023-01-29T10:01:05;94973.00;;;-1.54;100.00
39739;BME280;25422;48.286;8.484;2023-01-29T10:06:20;94970.34;;;-1.34;100.00
39739;BME280;25422;48.286;8.484;2023-01-29T10:12:17;94956.56;;;-0.82;100.00
39739;BME280;25422;48.286;8.484;2023-01-29T10:18:10;94950.09;;;0.05;100.00
39739;BME280;25422;48.286;8.484;2023-01-29T10:23:26;94939.63;;;0.08;100.00
39739;BME280;25422;48.286;8.484;2023-01-29T10:25:54;94933.97;;;-0.13;100.00
39739;BME280;25422;48.286;8.484;2023-01-29T10:30:59;94927.53;;;-0.37;100.00
39739;BME280;25422;48.286;8.484;2023-01-29T10:33:38;94912.78;;;-0.03;100.00
39739;BME280;25422;48.286;8.484;2023-01-29T10:36:08;94907.00;;;0.39;100.00
39739;BME280;25422;48.286;8.484;2023-01-29T10:38:47;94909.59;;;0.82;100.00
39739;BME280;25422;48.286;8.484;2023-01-29T10:44:17;94903.00;;;0.19;100.00
39739;BME280;25422;48.286;8.484;2023-01-29T10:47:24;94905.31;;;0.23;100.00
39739;BME280;25422;48.286;8.484;2023-01-29T11:00:35;94912.25;;;1.24;99.74
39739;BME280;25422;48.286;8.484;2023-01-29T11:03:23;94909.84;;;1.62;93.98
39739;BME280;25422;48.286;8.484;2023-01-29T11:06:17;94916.69;;;0.93;100.00
39739;BME280;25422;48.286;8.484;2023-01-29T11:08:54;94911.25;;;0.83;100.00
39739;BME280;25422;48.286;8.484;2023-01-29T11:11:42;94909.25;;;1.44;100.00
39739;BME280;25422;48.286;8.484;2023-01-29T11:14:13;94909.78;;;2.17;94.13
39739;BME280;25422;48.286;8.484;2023-01-29T11:16:42;94910.25;;;2.36;90.10
39739;BME280;25422;48.286;8.484;2023-01-29T11:19:08;94904.19;;;2.10;87.04
39739;BME280;25422;48.286;8.484;2023-01-29T11:21:56;94898.72;;;1.47;91.96
39739;BME280;25422;48.286;8.484;2023-01-29T11:24:22;94898.44;;;1.10;93.82
39739;BME280;25422;48.286;8.484;2023-01-29T11:26:49;94900.47;;;0.62;99.69
39739;BME280;25422;48.286;8.484;2023-01-29T11:29:36;94890.81;;;1.09;99.50
39739;BME280;25422;48.286;8.484;2023-01-29T11:32:05;94886.31;;;0.98;98.94
39739;BME280;25422;48.286;8.484;2023-01-29T11:34:31;94887.72;;;0.75;100.00
39739;BME280;25422;48.286;8.484;2023-01-29T11:37:02;94891.47;;;0.98;100.00
39739;BME280;25422;48.286;8.484;2023-01-29T11:39:30;94893.31;;;0.67;100.00
39739;BME280;25422;48.286;8.484;2023-01-29T11:42:01;94878.28;;;1.03;100.00
39739;BME280;25422;48.286;8.484;2023-01-29T11:44:29;94879.63;;;1.37;100.00
39739;BME280;25422;48.286;8.484;2023-01-29T11:47:06;94880.19;;;1.82;100.00
39739;BME280;25422;48.286;8.484;2023-01-29T11:49:34;94885.13;;;2.39;91.66
39739;BME280;25422;48.286;8.484;2023-01-29T11:52:02;94885.50;;;2.07;92.12
39739;BME280;25422;48.286;8.484;2023-01-29T11:54:37;94883.31;;;1.88;92.38
39739;BME280;25422;48.286;8.484;2023-01-29T11:57:21;94885.25;;;1.57;95.62
39739;BME280;25422;48.286;8.484;2023-01-29T11:59:49;94894.00;;;1.27;97.22
39739;BME280;25422;48.286;8.484;2023-01-29T12:02:26;94886.69;;;1.48;96.06
39739;BME280;25422;48.286;8.484;2023-01-29T12:04:57;94886.38;;;1.52;95.68
39739;BME280;25422;48.286;8.484;2023-01-29T12:07:24;94889.00;;;1.38;95.92
39739;BME280;25422;48.286;8.484;2023-01-29T12:09:55;94878.09;;;1.20;98.45
39739;BME280;25422;48.286;8.484;2023-01-29T12:15:15;94867.38;;;0.70;100.00
39739;BME280;25422;48.286;8.484;2023-01-29T12:17:44;94860.69;;;0.53;100.00
39739;BME280;25422;48.286;8.484;2023-01-29T12:20:18;94856.53;;;0.50;100.00
39739;BME280;25422;48.286;8.484;2023-01-29T12:23:13;94861.75;;;1.34;100.00
39739;BME280;25422;48.286;8.484;2023-01-29T12:25:52;94860.69;;;1.51;99.26
39739;BME280;25422;48.286;8.484;2023-01-29T12:31:26;94858.19;;;0.80;100.00
39739;BME280;25422;48.286;8.484;2023-01-29T12:39:54;94838.72;;;-0.12;100.00
39739;BME280;25422;48.286;8.484;2023-01-29T12:42:21;94838.47;;;0.07;100.00
39739;BME280;25422;48.286;8.484;2023-01-29T12:44:53;94837.31;;;0.71;100.00
39739;BME280;25422;48.286;8.484;2023-01-29T12:47:35;94826.53;;;1.47;99.82
39739;BME280;25422;48.286;8.484;2023-01-29T12:53:18;94817.53;;;1.40;100.00
39739;BME280;25422;48.286;8.484;2023-01-29T12:59:00;94808.19;;;0.97;100.00
39739;BME280;25422;48.286;8.484;2023-01-29T13:01:37;94808.13;;;0.70;100.00
39739;BME280;25422;48.286;8.484;2023-01-29T13:04:13;94804.22;;;1.06;100.00
39739;BME280;25422;48.286;8.484;2023-01-29T13:06:49;94795.97;;;1.14;100.00
39739;BME280;25422;48.286;8.484;2023-01-29T13:09:20;94776.97;;;1.29;100.00
39739;BME280;25422;48.286;8.484;2023-01-29T13:14:55;94767.25;;;0.37;100.00
39739;BME280;25422;48.286;8.484;2023-01-29T13:17:33;94763.56;;;0.12;100.00
39739;BME280;25422;48.286;8.484;2023-01-29T13:20:13;94762.13;;;-0.07;100.00
39739;BME280;25422;48.286;8.484;2023-01-29T13:22:42;94759.75;;;0.19;100.00
39739;BME280;25422;48.286;8.484;2023-01-29T13:25:14;94756.75;;;0.11;100.00
39739;BME280;25422;48.286;8.484;2023-01-29T13:27:41;94755.31;;;0.07;100.00
39739;BME280;25422;48.286;8.484;2023-01-29T13:30:19;94748.22;;;-0.04;100.00
39739;BME280;25422;48.286;8.484;2023-01-29T13:32:51;94752.84;;;-0.09;100.00
39739;BME280;25422;48.286;8.484;2023-01-29T13:35:20;94742.44;;;-0.08;100.00
39739;BME280;25422;48.286;8.484;2023-01-29T13:37:48;94738.22;;;0.06;100.00
39739;BME280;25422;48.286;8.484;2023-01-29T13:40:26;94730.38;;;0.22;100.00
39739;BME280;25422;48.286;8.484;2023-01-29T13:42:53;94724.88;;;-0.15;100.00
39739;BME280;25422;48.286;8.484;2023-01-29T13:45:24;94732.53;;;-0.28;100.00
39739;BME280;25422;48.286;8.484;2023-01-29T13:47:51;94730.09;;;-0.31;100.00
39739;BME280;25422;48.286;8.484;2023-01-29T13:50:20;94726.31;;;-0.55;100.00
39739;BME280;25422;48.286;8.484;2023-01-29T13:52:56;94727.00;;;-0.37;100.00
39739;BME280;25422;48.286;8.484;2023-01-29T13:55:30;94732.66;;;-0.46;100.00
39739;BME280;25422;48.286;8.484;2023-01-29T13:57:58;94736.06;;;-0.45;100.00
39739;BME280;25422;48.286;8.484;2023-01-29T14:10:39;94730.63;;;-0.41;100.00
39739;BME280;25422;48.286;8.484;2023-01-29T14:15:42;94740.44;;;-0.62;100.00
39739;BME280;25422;48.286;8.484;2023-01-29T14:20:39;94743.06;;;-0.94;100.00
39739;BME280;25422;48.286;8.484;2023-01-29T14:23:07;94746.56;;;-0.95;100.00
39739;BME280;25422;48.286;8.484;2023-01-29T14:25:44;94743.75;;;-0.90;100.00
39739;BME280;25422;48.286;8.484;2023-01-29T14:28:18;94744.56;;;-0.90;100.00
39739;BME280;25422;48.286;8.484;2023-01-29T14:30:46;94748.34;;;-0.81;100.00
39739;BME280;25422;48.286;8.484;2023-01-29T14:33:34;94758.03;;;-0.70;100.00
39739;BME280;25422;48.286;8.484;2023-01-29T14:36:08;94748.84;;;-0.74;100.00
39739;BME280;25422;48.286;8.484;2023-01-29T14:38:35;94750.44;;;-0.57;100.00
39739;BME280;25422;48.286;8.484;2023-01-29T14:41:06;94750.44;;;-0.57;100.00
39739;BME280;25422;48.286;8.484;2023-01-29T14:43:33;94751.00;;;-0.52;100.00
39739;BME280;25422;48.286;8.484;2023-01-29T14:48:59;94761.22;;;-0.66;100.00
39739;BME280;25422;48.286;8.484;2023-01-29T14:51:26;94764.59;;;-0.80;100.00
39739;BME280;25422;48.286;8.484;2023-01-29T14:54:10;94771.78;;;-1.02;100.00
39739;BME280;25422;48.286;8.484;2023-01-29T14:56:59;94772.44;;;-1.14;100.00
39739;BME280;25422;48.286;8.484;2023-01-29T14:59:29;94773.25;;;-1.29;100.00